Friday, December 14, 2018, 7:29 PM EST
Back to Local

KELM, Elmira County Airport

Location: Horseheads, NY, United States Lat: 42.167
Local Time: 7:29 PM EST ( 0:29 GMT) Lon: -76.9
Time Zone: US/Eastern Elev: 954 ft

Show me the last for .
Show Decoded

2018-12-14 19:21 METAR KELM 150021Z 19005KT 10SM BKN023 OVC041 07/03 A3022 RMK AO2 T00720028 =
2018-12-14 19:11 METAR KELM 150011Z 20005KT 10SM SCT022 OVC041 07/02 A3022 RMK AO2 T00720022 =
2018-12-14 18:53 METAR KELM 142353Z 18003KT 10SM BKN022 OVC039 07/02 A3022 RMK AO2 SLP241
                 T00720022 10094 20072 56002 =
2018-12-14 17:57 METAR KELM 142257Z VRB03KT 10SM BKN025 OVC042 08/02 A3022 RMK AO2 T00780017 =
2018-12-14 17:53 METAR KELM 142253Z 00000KT 10SM SCT025 OVC042 08/02 A3022 RMK AO2 SLP240
                 T00780017 =
2018-12-14 16:53 METAR KELM 142153Z 21005KT 10SM SCT050 08/02 A3022 RMK AO2 SLP242 T00780017 =
2018-12-14 15:53 METAR KELM 142053Z 20006KT 10SM FEW070 08/01 A3023 RMK AO2 SLP243 T00830011
                 55005 =
2018-12-14 14:53 METAR KELM 141953Z 21012KT 10SM OVC060 09/01 A3022 RMK AO2 SLP240 T00890011 =
2018-12-14 13:53 METAR KELM 141853Z 20013KT 10SM CLR 09/02 A3023 RMK AO2 SLP242 T00890017 =
2018-12-14 12:53 METAR KELM 141753Z 20014G20KT 10SM FEW027 09/02 A3024 RMK AO2 SLP248 T00890022
                 10094 20028 56028 =
2018-12-14 12:32 METAR KELM 141732Z 21009KT 10SM SCT026 09/03 A3024 RMK AO2 T00940028 =
2018-12-14 11:53 METAR KELM 141653Z 20013G16KT 10SM BKN024 08/03 A3026 RMK AO2 SLP252 T00830028 =
2018-12-14 10:53 METAR KELM 141553Z 22010KT 10SM OVC021 07/02 A3031 RMK AO2 SLP270 T00720022 =
2018-12-14 09:53 METAR KELM 141453Z 21011G17KT 10SM OVC020 07/02 A3033 RMK AO2 SLP278 T00670022
                 50002 =
2018-12-14 08:53 METAR KELM 141353Z 21008KT 10SM OVC017 07/03 A3033 RMK AO2 SLP280 T00670028 =
2018-12-14 07:53 METAR KELM 141253Z VRB03KT 9SM OVC015 05/02 A3032 RMK AO2 SLP277 T00500022 =
2018-12-14 06:53 METAR KELM 141153Z 00000KT 6SM BR OVC015 03/01 A3032 RMK AO2 SLP277 70003
                 T00280006 10033 20011 55004 =
2018-12-14 05:53 METAR KELM 141053Z AUTO 00000KT 6SM BR OVC017 03/01 A3031 RMK AO2 SLP271
                 T00280006 =
2018-12-14 04:53 METAR KELM 140953Z AUTO 00000KT 5SM BR OVC019 02/00 A3032 RMK AO2 SLP274
                 T00220000 =
2018-12-14 03:53 METAR KELM 140853Z AUTO 00000KT 5SM BR OVC019 02/M01 A3034 RMK AO2 SLP282
                 T00171006 58007 =
2018-12-14 02:53 METAR KELM 140753Z AUTO 00000KT 4SM BR OVC021 02/M01 A3035 RMK AO2 SLP285
                 T00171006 =
2018-12-14 01:53 METAR KELM 140653Z AUTO 11004KT 6SM HZ OVC022 03/M01 A3035 RMK AO2 SLP286
                 T00281006 =
2018-12-14 00:53 METAR KELM 140553Z AUTO 00000KT 6SM HZ OVC022 03/M01 A3036 RMK AO2 SLP289
                 T00281006 10028 20017 58002 =
2018-12-13 23:53 METAR KELM 140453Z AUTO 13004KT 6SM HZ OVC021 02/M01 A3036 RMK AO2 SLP291
                 T00221006 400391006 =
2018-12-13 22:53 METAR KELM 140353Z 00000KT 5SM HZ OVC021 02/M01 A3037 RMK AO2 SLP292 T00221006 =
2018-12-13 21:53 METAR KELM 140253Z 00000KT 5SM HZ BKN022 OVC031 02/M01 A3037 RMK AO2 SLP292
                 T00221006 51006 =
2018-12-13 20:53 METAR KELM 140153Z 12004KT 6SM HZ BKN033 OVC050 02/M01 A3036 RMK AO2 SLP291
                 T00221006 =
2018-12-13 19:53 METAR KELM 140053Z 00000KT 6SM HZ BKN031 OVC050 02/M01 A3036 RMK AO2 SLP290
                 T00221006 =

Support USWX by starting your Amazon purchase here.